sensor_id;sensor_type;location;lat;lon;timestamp;P1;durP1;ratioP1;P2;durP2;ratioP2
21038;SDS011;10678;51.002;4.786;2022-11-20T00:00:23;24.83;;;13.80;;
21038;SDS011;10678;51.002;4.786;2022-11-20T00:02:49;23.97;;;13.17;;
21038;SDS011;10678;51.002;4.786;2022-11-20T00:05:15;23.17;;;13.53;;
21038;SDS011;10678;51.002;4.786;2022-11-20T00:07:40;23.77;;;13.77;;
21038;SDS011;10678;51.002;4.786;2022-11-20T00:10:06;25.90;;;14.33;;
21038;SDS011;10678;51.002;4.786;2022-11-20T00:12:32;24.67;;;14.07;;
21038;SDS011;10678;51.002;4.786;2022-11-20T00:14:58;24.83;;;13.67;;
21038;SDS011;10678;51.002;4.786;2022-11-20T00:17:23;28.50;;;18.40;;
21038;SDS011;10678;51.002;4.786;2022-11-20T00:19:49;27.23;;;17.17;;
21038;SDS011;10678;51.002;4.786;2022-11-20T00:22:14;24.67;;;13.40;;
21038;SDS011;10678;51.002;4.786;2022-11-20T00:24:40;22.83;;;13.17;;
21038;SDS011;10678;51.002;4.786;2022-11-20T00:27:05;26.63;;;14.40;;
21038;SDS011;10678;51.002;4.786;2022-11-20T00:29:31;24.27;;;14.63;;
21038;SDS011;10678;51.002;4.786;2022-11-20T00:31:56;24.53;;;14.37;;
21038;SDS011;10678;51.002;4.786;2022-11-20T00:34:22;24.93;;;14.73;;
21038;SDS011;10678;51.002;4.786;2022-11-20T00:36:47;27.87;;;15.50;;
21038;SDS011;10678;51.002;4.786;2022-11-20T00:39:13;25.97;;;15.70;;
21038;SDS011;10678;51.002;4.786;2022-11-20T00:41:38;22.77;;;14.43;;
21038;SDS011;10678;51.002;4.786;2022-11-20T00:44:04;25.13;;;15.13;;
21038;SDS011;10678;51.002;4.786;2022-11-20T00:46:30;24.73;;;13.27;;
21038;SDS011;10678;51.002;4.786;2022-11-20T00:48:55;27.90;;;15.00;;
21038;SDS011;10678;51.002;4.786;2022-11-20T00:51:22;25.50;;;14.90;;
21038;SDS011;10678;51.002;4.786;2022-11-20T00:53:49;22.50;;;13.87;;
21038;SDS011;10678;51.002;4.786;2022-11-20T00:56:16;27.43;;;14.90;;
21038;SDS011;10678;51.002;4.786;2022-11-20T00:58:43;27.00;;;14.70;;
21038;SDS011;10678;51.002;4.786;2022-11-20T01:01:12;27.23;;;15.30;;
21038;SDS011;10678;51.002;4.786;2022-11-20T01:03:40;26.23;;;15.17;;
21038;SDS011;10678;51.002;4.786;2022-11-20T01:06:11;28.33;;;16.17;;
21038;SDS011;10678;51.002;4.786;2022-11-20T01:08:42;26.13;;;14.30;;
21038;SDS011;10678;51.002;4.786;2022-11-20T01:11:09;26.60;;;14.47;;
21038;SDS011;10678;51.002;4.786;2022-11-20T01:13:43;25.67;;;14.90;;
21038;SDS011;10678;51.002;4.786;2022-11-20T01:16:20;23.90;;;14.37;;
21038;SDS011;10678;51.002;4.786;2022-11-20T01:18:48;25.50;;;14.30;;
21038;SDS011;10678;51.002;4.786;2022-11-20T01:21:26;23.87;;;14.57;;
21038;SDS011;10678;51.002;4.786;2022-11-20T01:23:53;26.73;;;15.13;;
21038;SDS011;10678;51.002;4.786;2022-11-20T01:26:20;24.20;;;14.03;;
21038;SDS011;10678;51.002;4.786;2022-11-20T01:28:47;23.73;;;13.80;;
21038;SDS011;10678;51.002;4.786;2022-11-20T01:31:24;24.53;;;13.90;;
21038;SDS011;10678;51.002;4.786;2022-11-20T01:33:52;26.30;;;14.83;;
21038;SDS011;10678;51.002;4.786;2022-11-20T01:36:19;27.63;;;15.00;;
21038;SDS011;10678;51.002;4.786;2022-11-20T01:38:46;24.97;;;14.33;;
21038;SDS011;10678;51.002;4.786;2022-11-20T01:41:13;25.60;;;15.23;;
21038;SDS011;10678;51.002;4.786;2022-11-20T01:44:00;25.57;;;14.93;;
21038;SDS011;10678;51.002;4.786;2022-11-20T01:46:26;27.37;;;13.93;;
21038;SDS011;10678;51.002;4.786;2022-11-20T01:51:41;26.73;;;15.47;;
21038;SDS011;10678;51.002;4.786;2022-11-20T01:54:12;26.00;;;15.27;;
21038;SDS011;10678;51.002;4.786;2022-11-20T01:56:44;26.90;;;14.57;;
21038;SDS011;10678;51.002;4.786;2022-11-20T01:59:12;27.77;;;14.47;;
21038;SDS011;10678;51.002;4.786;2022-11-20T02:01:40;26.47;;;14.93;;
21038;SDS011;10678;51.002;4.786;2022-11-20T02:04:06;26.40;;;14.90;;
21038;SDS011;10678;51.002;4.786;2022-11-20T02:06:35;27.83;;;15.37;;
21038;SDS011;10678;51.002;4.786;2022-11-20T02:09:05;27.50;;;15.33;;
21038;SDS011;10678;51.002;4.786;2022-11-20T02:11:31;25.47;;;14.57;;
21038;SDS011;10678;51.002;4.786;2022-11-20T02:13:57;25.87;;;15.03;;
21038;SDS011;10678;51.002;4.786;2022-11-20T02:16:24;26.53;;;14.87;;
21038;SDS011;10678;51.002;4.786;2022-11-20T02:18:54;24.27;;;14.03;;
21038;SDS011;10678;51.002;4.786;2022-11-20T02:21:33;25.57;;;14.60;;
21038;SDS011;10678;51.002;4.786;2022-11-20T02:24:05;26.10;;;14.93;;
21038;SDS011;10678;51.002;4.786;2022-11-20T02:27:06;25.27;;;14.53;;
21038;SDS011;10678;51.002;4.786;2022-11-20T02:29:37;24.53;;;14.37;;
21038;SDS011;10678;51.002;4.786;2022-11-20T02:32:04;26.10;;;15.20;;
21038;SDS011;10678;51.002;4.786;2022-11-20T02:34:30;28.53;;;15.63;;
21038;SDS011;10678;51.002;4.786;2022-11-20T02:36:56;26.53;;;15.27;;
21038;SDS011;10678;51.002;4.786;2022-11-20T02:39:24;25.33;;;15.47;;
21038;SDS011;10678;51.002;4.786;2022-11-20T02:41:52;29.57;;;16.47;;
21038;SDS011;10678;51.002;4.786;2022-11-20T02:44:19;26.40;;;15.17;;
21038;SDS011;10678;51.002;4.786;2022-11-20T02:46:45;24.90;;;15.80;;
21038;SDS011;10678;51.002;4.786;2022-11-20T02:49:11;25.47;;;15.17;;
21038;SDS011;10678;51.002;4.786;2022-11-20T02:51:36;28.43;;;15.87;;
21038;SDS011;10678;51.002;4.786;2022-11-20T02:54:02;29.13;;;16.33;;
21038;SDS011;10678;51.002;4.786;2022-11-20T02:56:28;27.70;;;15.53;;
21038;SDS011;10678;51.002;4.786;2022-11-20T02:58:53;24.93;;;14.47;;
21038;SDS011;10678;51.002;4.786;2022-11-20T03:01:19;28.40;;;16.37;;
21038;SDS011;10678;51.002;4.786;2022-11-20T03:03:45;31.07;;;17.17;;
21038;SDS011;10678;51.002;4.786;2022-11-20T03:06:10;29.20;;;15.00;;
21038;SDS011;10678;51.002;4.786;2022-11-20T03:08:36;30.40;;;16.13;;
21038;SDS011;10678;51.002;4.786;2022-11-20T03:11:05;26.60;;;15.63;;
21038;SDS011;10678;51.002;4.786;2022-11-20T03:13:32;27.33;;;16.27;;
21038;SDS011;10678;51.002;4.786;2022-11-20T03:15:58;29.03;;;17.13;;
21038;SDS011;10678;51.002;4.786;2022-11-20T03:18:29;29.07;;;17.00;;
21038;SDS011;10678;51.002;4.786;2022-11-20T03:20:58;25.03;;;15.50;;
21038;SDS011;10678;51.002;4.786;2022-11-20T03:23:24;29.33;;;15.77;;
21038;SDS011;10678;51.002;4.786;2022-11-20T03:25:50;29.37;;;15.57;;
21038;SDS011;10678;51.002;4.786;2022-11-20T03:28:16;27.70;;;16.10;;
21038;SDS011;10678;51.002;4.786;2022-11-20T03:30:41;32.27;;;17.17;;
21038;SDS011;10678;51.002;4.786;2022-11-20T03:33:07;31.23;;;16.80;;
21038;SDS011;10678;51.002;4.786;2022-11-20T03:35:32;28.20;;;16.80;;
21038;SDS011;10678;51.002;4.786;2022-11-20T03:37:58;27.70;;;16.20;;
21038;SDS011;10678;51.002;4.786;2022-11-20T03:40:23;27.63;;;16.17;;
21038;SDS011;10678;51.002;4.786;2022-11-20T03:42:49;28.40;;;16.17;;
21038;SDS011;10678;51.002;4.786;2022-11-20T03:45:17;31.63;;;16.87;;
21038;SDS011;10678;51.002;4.786;2022-11-20T03:47:43;28.83;;;15.87;;
21038;SDS011;10678;51.002;4.786;2022-11-20T03:50:10;28.43;;;16.30;;
21038;SDS011;10678;51.002;4.786;2022-11-20T03:52:38;30.80;;;17.07;;
21038;SDS011;10678;51.002;4.786;2022-11-20T03:55:04;32.23;;;16.20;;
21038;SDS011;10678;51.002;4.786;2022-11-20T03:57:30;27.20;;;16.20;;
21038;SDS011;10678;51.002;4.786;2022-11-20T03:59:56;27.60;;;16.70;;
21038;SDS011;10678;51.002;4.786;2022-11-20T04:02:21;29.40;;;15.97;;
21038;SDS011;10678;51.002;4.786;2022-11-20T04:04:47;29.10;;;16.13;;
21038;SDS011;10678;51.002;4.786;2022-11-20T04:07:13;28.70;;;16.57;;
21038;SDS011;10678;51.002;4.786;2022-11-20T04:09:38;31.13;;;16.73;;
21038;SDS011;10678;51.002;4.786;2022-11-20T04:12:04;29.07;;;16.80;;
21038;SDS011;10678;51.002;4.786;2022-11-20T04:14:29;28.83;;;15.73;;
21038;SDS011;10678;51.002;4.786;2022-11-20T04:16:55;31.50;;;15.87;;
21038;SDS011;10678;51.002;4.786;2022-11-20T04:19:20;31.17;;;17.40;;
21038;SDS011;10678;51.002;4.786;2022-11-20T04:21:46;31.87;;;16.17;;
21038;SDS011;10678;51.002;4.786;2022-11-20T04:24:12;30.03;;;16.50;;
21038;SDS011;10678;51.002;4.786;2022-11-20T04:26:37;28.53;;;15.97;;
21038;SDS011;10678;51.002;4.786;2022-11-20T04:29:04;32.03;;;17.53;;
21038;SDS011;10678;51.002;4.786;2022-11-20T04:31:31;31.13;;;16.33;;
21038;SDS011;10678;51.002;4.786;2022-11-20T04:33:59;31.70;;;16.70;;
21038;SDS011;10678;51.002;4.786;2022-11-20T04:36:29;35.87;;;19.20;;
21038;SDS011;10678;51.002;4.786;2022-11-20T04:38:55;35.60;;;17.90;;
21038;SDS011;10678;51.002;4.786;2022-11-20T04:41:27;35.37;;;18.13;;
21038;SDS011;10678;51.002;4.786;2022-11-20T04:43:56;38.17;;;19.40;;
21038;SDS011;10678;51.002;4.786;2022-11-20T04:46:25;37.47;;;17.90;;
21038;SDS011;10678;51.002;4.786;2022-11-20T04:48:51;38.80;;;18.67;;
21038;SDS011;10678;51.002;4.786;2022-11-20T04:51:18;43.07;;;19.67;;
21038;SDS011;10678;51.002;4.786;2022-11-20T04:53:43;38.43;;;19.77;;
21038;SDS011;10678;51.002;4.786;2022-11-20T04:56:09;40.60;;;18.53;;
21038;SDS011;10678;51.002;4.786;2022-11-20T04:58:36;36.67;;;18.63;;
21038;SDS011;10678;51.002;4.786;2022-11-20T05:01:03;40.77;;;19.20;;
21038;SDS011;10678;51.002;4.786;2022-11-20T05:03:34;39.77;;;18.97;;
21038;SDS011;10678;51.002;4.786;2022-11-20T05:06:00;34.13;;;18.10;;
21038;SDS011;10678;51.002;4.786;2022-11-20T05:08:27;36.67;;;17.80;;
21038;SDS011;10678;51.002;4.786;2022-11-20T05:10:53;34.43;;;17.87;;
21038;SDS011;10678;51.002;4.786;2022-11-20T05:13:19;35.03;;;18.17;;
21038;SDS011;10678;51.002;4.786;2022-11-20T05:15:44;43.77;;;20.77;;
21038;SDS011;10678;51.002;4.786;2022-11-20T05:18:10;38.70;;;19.17;;
21038;SDS011;10678;51.002;4.786;2022-11-20T05:20:35;35.07;;;18.50;;
21038;SDS011;10678;51.002;4.786;2022-11-20T05:23:01;37.97;;;19.70;;
21038;SDS011;10678;51.002;4.786;2022-11-20T05:25:27;35.80;;;17.77;;
21038;SDS011;10678;51.002;4.786;2022-11-20T05:27:53;40.17;;;19.43;;
21038;SDS011;10678;51.002;4.786;2022-11-20T05:30:18;44.03;;;21.17;;
21038;SDS011;10678;51.002;4.786;2022-11-20T05:32:44;43.37;;;21.03;;
21038;SDS011;10678;51.002;4.786;2022-11-20T05:35:09;52.17;;;23.17;;
21038;SDS011;10678;51.002;4.786;2022-11-20T05:37:35;46.30;;;20.63;;
21038;SDS011;10678;51.002;4.786;2022-11-20T05:40:01;44.97;;;21.13;;
21038;SDS011;10678;51.002;4.786;2022-11-20T05:42:29;43.63;;;21.57;;
21038;SDS011;10678;51.002;4.786;2022-11-20T05:44:56;43.13;;;20.63;;
21038;SDS011;10678;51.002;4.786;2022-11-20T05:47:22;41.97;;;21.20;;
21038;SDS011;10678;51.002;4.786;2022-11-20T05:49:47;48.93;;;20.43;;
21038;SDS011;10678;51.002;4.786;2022-11-20T05:52:13;45.13;;;21.00;;
21038;SDS011;10678;51.002;4.786;2022-11-20T05:54:39;41.70;;;20.33;;
21038;SDS011;10678;51.002;4.786;2022-11-20T05:57:04;39.43;;;20.13;;
21038;SDS011;10678;51.002;4.786;2022-11-20T05:59:30;42.37;;;21.17;;
21038;SDS011;10678;51.002;4.786;2022-11-20T06:01:55;48.33;;;22.80;;
21038;SDS011;10678;51.002;4.786;2022-11-20T06:04:21;41.80;;;20.37;;
21038;SDS011;10678;51.002;4.786;2022-11-20T06:06:47;34.50;;;19.20;;
21038;SDS011;10678;51.002;4.786;2022-11-20T06:09:12;40.37;;;20.27;;
21038;SDS011;10678;51.002;4.786;2022-11-20T06:11:38;43.07;;;21.10;;
21038;SDS011;10678;51.002;4.786;2022-11-20T06:14:03;44.30;;;19.60;;
21038;SDS011;10678;51.002;4.786;2022-11-20T06:16:29;44.33;;;20.47;;
21038;SDS011;10678;51.002;4.786;2022-11-20T06:18:54;44.03;;;20.63;;
21038;SDS011;10678;51.002;4.786;2022-11-20T06:21:21;42.43;;;21.17;;
21038;SDS011;10678;51.002;4.786;2022-11-20T06:23:47;40.90;;;19.83;;
21038;SDS011;10678;51.002;4.786;2022-11-20T06:26:16;46.17;;;21.50;;
21038;SDS011;10678;51.002;4.786;2022-11-20T06:28:43;41.20;;;19.50;;
21038;SDS011;10678;51.002;4.786;2022-11-20T06:31:10;43.23;;;20.40;;
21038;SDS011;10678;51.002;4.786;2022-11-20T06:33:37;44.30;;;19.90;;
21038;SDS011;10678;51.002;4.786;2022-11-20T06:36:03;40.90;;;19.13;;
21038;SDS011;10678;51.002;4.786;2022-11-20T06:38:29;43.57;;;19.70;;
21038;SDS011;10678;51.002;4.786;2022-11-20T06:40:55;41.53;;;19.17;;
21038;SDS011;10678;51.002;4.786;2022-11-20T06:43:21;42.20;;;18.47;;
21038;SDS011;10678;51.002;4.786;2022-11-20T06:45:53;46.90;;;20.00;;
21038;SDS011;10678;51.002;4.786;2022-11-20T06:48:20;40.27;;;20.30;;
21038;SDS011;10678;51.002;4.786;2022-11-20T06:50:46;44.50;;;20.23;;
21038;SDS011;10678;51.002;4.786;2022-11-20T06:53:11;44.97;;;20.43;;
21038;SDS011;10678;51.002;4.786;2022-11-20T06:55:41;46.83;;;20.60;;
21038;SDS011;10678;51.002;4.786;2022-11-20T06:58:08;46.37;;;18.97;;
21038;SDS011;10678;51.002;4.786;2022-11-20T07:00:34;38.07;;;17.70;;
21038;SDS011;10678;51.002;4.786;2022-11-20T07:03:02;43.17;;;20.43;;
21038;SDS011;10678;51.002;4.786;2022-11-20T07:05:29;43.90;;;20.17;;
21038;SDS011;10678;51.002;4.786;2022-11-20T07:07:57;45.77;;;19.77;;
21038;SDS011;10678;51.002;4.786;2022-11-20T07:10:23;42.33;;;20.17;;
21038;SDS011;10678;51.002;4.786;2022-11-20T07:12:49;46.97;;;20.77;;
21038;SDS011;10678;51.002;4.786;2022-11-20T07:15:16;40.00;;;20.87;;
21038;SDS011;10678;51.002;4.786;2022-11-20T07:17:42;46.80;;;22.20;;
21038;SDS011;10678;51.002;4.786;2022-11-20T07:20:08;45.67;;;21.20;;
21038;SDS011;10678;51.002;4.786;2022-11-20T07:22:34;44.40;;;21.70;;
21038;SDS011;10678;51.002;4.786;2022-11-20T07:25:00;46.00;;;21.00;;
21038;SDS011;10678;51.002;4.786;2022-11-20T07:27:26;43.97;;;21.70;;
21038;SDS011;10678;51.002;4.786;2022-11-20T07:29:52;49.93;;;21.20;;
21038;SDS011;10678;51.002;4.786;2022-11-20T07:32:18;46.50;;;20.30;;
21038;SDS011;10678;51.002;4.786;2022-11-20T07:34:44;47.97;;;21.53;;
21038;SDS011;10678;51.002;4.786;2022-11-20T07:37:09;41.93;;;20.50;;
21038;SDS011;10678;51.002;4.786;2022-11-20T07:39:35;41.03;;;20.10;;
21038;SDS011;10678;51.002;4.786;2022-11-20T07:42:00;47.07;;;20.13;;
21038;SDS011;10678;51.002;4.786;2022-11-20T07:44:26;45.07;;;21.30;;
21038;SDS011;10678;51.002;4.786;2022-11-20T07:46:51;45.87;;;20.87;;
21038;SDS011;10678;51.002;4.786;2022-11-20T07:49:17;46.93;;;20.93;;
21038;SDS011;10678;51.002;4.786;2022-11-20T07:51:43;41.93;;;20.77;;
21038;SDS011;10678;51.002;4.786;2022-11-20T07:54:08;39.80;;;20.27;;
21038;SDS011;10678;51.002;4.786;2022-11-20T07:56:34;40.60;;;19.73;;
21038;SDS011;10678;51.002;4.786;2022-11-20T07:58:59;39.83;;;20.13;;
21038;SDS011;10678;51.002;4.786;2022-11-20T08:01:25;43.60;;;20.63;;
21038;SDS011;10678;51.002;4.786;2022-11-20T08:03:50;41.40;;;20.73;;
21038;SDS011;10678;51.002;4.786;2022-11-20T08:06:16;41.07;;;21.00;;
21038;SDS011;10678;51.002;4.786;2022-11-20T08:08:43;42.07;;;22.07;;
21038;SDS011;10678;51.002;4.786;2022-11-20T08:11:09;43.83;;;20.17;;
21038;SDS011;10678;51.002;4.786;2022-11-20T08:13:53;45.87;;;20.90;;
21038;SDS011;10678;51.002;4.786;2022-11-20T08:16:40;46.30;;;23.40;;
21038;SDS011;10678;51.002;4.786;2022-11-20T08:19:10;44.57;;;21.00;;
21038;SDS011;10678;51.002;4.786;2022-11-20T08:21:37;47.23;;;21.80;;
21038;SDS011;10678;51.002;4.786;2022-11-20T08:24:03;47.27;;;21.03;;
21038;SDS011;10678;51.002;4.786;2022-11-20T08:26:29;40.70;;;20.30;;
21038;SDS011;10678;51.002;4.786;2022-11-20T08:28:55;45.90;;;20.90;;
21038;SDS011;10678;51.002;4.786;2022-11-20T08:31:21;42.87;;;20.17;;
21038;SDS011;10678;51.002;4.786;2022-11-20T08:33:48;44.40;;;21.37;;
21038;SDS011;10678;51.002;4.786;2022-11-20T08:36:14;52.43;;;21.77;;
21038;SDS011;10678;51.002;4.786;2022-11-20T08:38:39;43.60;;;20.73;;
21038;SDS011;10678;51.002;4.786;2022-11-20T08:41:05;42.37;;;20.63;;
21038;SDS011;10678;51.002;4.786;2022-11-20T08:43:50;47.87;;;21.53;;
21038;SDS011;10678;51.002;4.786;2022-11-20T08:46:17;38.33;;;19.47;;
21038;SDS011;10678;51.002;4.786;2022-11-20T08:48:43;48.33;;;21.57;;
21038;SDS011;10678;51.002;4.786;2022-11-20T08:51:09;41.53;;;20.67;;
21038;SDS011;10678;51.002;4.786;2022-11-20T08:53:36;50.40;;;21.13;;
21038;SDS011;10678;51.002;4.786;2022-11-20T08:56:02;38.57;;;19.33;;
21038;SDS011;10678;51.002;4.786;2022-11-20T08:58:28;49.93;;;21.90;;
21038;SDS011;10678;51.002;4.786;2022-11-20T09:00:54;46.90;;;20.17;;
21038;SDS011;10678;51.002;4.786;2022-11-20T09:03:19;47.13;;;21.40;;
21038;SDS011;10678;51.002;4.786;2022-11-20T09:05:45;52.33;;;20.50;;
21038;SDS011;10678;51.002;4.786;2022-11-20T09:08:11;48.93;;;22.17;;
21038;SDS011;10678;51.002;4.786;2022-11-20T09:10:36;44.13;;;20.83;;
21038;SDS011;10678;51.002;4.786;2022-11-20T09:13:04;48.47;;;21.87;;
21038;SDS011;10678;51.002;4.786;2022-11-20T09:15:30;48.80;;;19.67;;
21038;SDS011;10678;51.002;4.786;2022-11-20T09:18:00;48.63;;;20.90;;
21038;SDS011;10678;51.002;4.786;2022-11-20T09:20:28;45.10;;;20.23;;
21038;SDS011;10678;51.002;4.786;2022-11-20T09:22:56;52.30;;;20.93;;
21038;SDS011;10678;51.002;4.786;2022-11-20T09:25:22;51.70;;;21.87;;
21038;SDS011;10678;51.002;4.786;2022-11-20T09:27:54;49.17;;;21.80;;
21038;SDS011;10678;51.002;4.786;2022-11-20T09:30:23;48.23;;;21.93;;
21038;SDS011;10678;51.002;4.786;2022-11-20T09:32:49;48.67;;;20.07;;
21038;SDS011;10678;51.002;4.786;2022-11-20T09:35:15;56.13;;;22.97;;
21038;SDS011;10678;51.002;4.786;2022-11-20T09:37:40;53.33;;;21.97;;
21038;SDS011;10678;51.002;4.786;2022-11-20T09:40:06;51.77;;;22.30;;
21038;SDS011;10678;51.002;4.786;2022-11-20T09:46:07;58.10;;;22.53;;
21038;SDS011;10678;51.002;4.786;2022-11-20T09:52:04;56.60;;;24.73;;
21038;SDS011;10678;51.002;4.786;2022-11-20T09:54:57;63.43;;;24.03;;
21038;SDS011;10678;51.002;4.786;2022-11-20T09:57:29;59.90;;;21.97;;
21038;SDS011;10678;51.002;4.786;2022-11-20T10:00:03;55.50;;;22.80;;
21038;SDS011;10678;51.002;4.786;2022-11-20T10:05:33;61.33;;;22.67;;
21038;SDS011;10678;51.002;4.786;2022-11-20T10:10:53;61.70;;;22.70;;
21038;SDS011;10678;51.002;4.786;2022-11-20T10:13:35;57.40;;;21.50;;
21038;SDS011;10678;51.002;4.786;2022-11-20T10:27:56;50.97;;;21.30;;
21038;SDS011;10678;51.002;4.786;2022-11-20T10:30:08;60.07;;;23.53;;
21038;SDS011;10678;51.002;4.786;2022-11-20T10:32:38;55.23;;;23.43;;
21038;SDS011;10678;51.002;4.786;2022-11-20T10:38:31;56.10;;;22.70;;
21038;SDS011;10678;51.002;4.786;2022-11-20T10:41:02;54.63;;;21.00;;
21038;SDS011;10678;51.002;4.786;2022-11-20T10:43:47;64.17;;;22.37;;
21038;SDS011;10678;51.002;4.786;2022-11-20T10:46:18;53.10;;;19.37;;
21038;SDS011;10678;51.002;4.786;2022-11-20T10:48:47;57.20;;;22.00;;
21038;SDS011;10678;51.002;4.786;2022-11-20T10:51:16;54.50;;;22.03;;
21038;SDS011;10678;51.002;4.786;2022-11-20T10:57:04;49.57;;;21.13;;
21038;SDS011;10678;51.002;4.786;2022-11-20T10:59:59;45.80;;;19.33;;
21038;SDS011;10678;51.002;4.786;2022-11-20T11:05:22;47.30;;;20.93;;
21038;SDS011;10678;51.002;4.786;2022-11-20T11:08:14;44.47;;;20.43;;
21038;SDS011;10678;51.002;4.786;2022-11-20T11:10:51;50.47;;;21.93;;
21038;SDS011;10678;51.002;4.786;2022-11-20T11:15:49;47.65;;;18.83;;
21038;SDS011;10678;51.002;4.786;2022-11-20T11:18:22;45.00;;;19.13;;
21038;SDS011;10678;51.002;4.786;2022-11-20T11:20:56;42.20;;;18.27;;
21038;SDS011;10678;51.002;4.786;2022-11-20T11:23:28;40.23;;;17.30;;
21038;SDS011;10678;51.002;4.786;2022-11-20T11:26:03;48.33;;;20.13;;
21038;SDS011;10678;51.002;4.786;2022-11-20T11:28:31;34.92;;;15.63;;
21038;SDS011;10678;51.002;4.786;2022-11-20T11:30:57;44.03;;;18.37;;
21038;SDS011;10678;51.002;4.786;2022-11-20T11:35:51;40.65;;;18.20;;
21038;SDS011;10678;51.002;4.786;2022-11-20T11:38:37;41.38;;;17.90;;
21038;SDS011;10678;51.002;4.786;2022-11-20T11:41:07;34.65;;;15.30;;
21038;SDS011;10678;51.002;4.786;2022-11-20T11:43:36;36.95;;;16.17;;
21038;SDS011;10678;51.002;4.786;2022-11-20T11:49:25;33.50;;;15.95;;
21038;SDS011;10678;51.002;4.786;2022-11-20T12:00:08;25.42;;;11.85;;
21038;SDS011;10678;51.002;4.786;2022-11-20T12:13:46;15.77;;;7.00;;
21038;SDS011;10678;51.002;4.786;2022-11-20T12:15:58;13.15;;;5.85;;
21038;SDS011;10678;51.002;4.786;2022-11-20T12:18:24;13.80;;;5.43;;
21038;SDS011;10678;51.002;4.786;2022-11-20T12:26:04;10.85;;;4.13;;
21038;SDS011;10678;51.002;4.786;2022-11-20T12:34:47;7.07;;;3.10;;
21038;SDS011;10678;51.002;4.786;2022-11-20T12:40:24;6.63;;;2.53;;
21038;SDS011;10678;51.002;4.786;2022-11-20T12:43:25;7.95;;;2.15;;
21038;SDS011;10678;51.002;4.786;2022-11-20T12:46:55;9.00;;;2.50;;
21038;SDS011;10678;51.002;4.786;2022-11-20T12:52:11;9.43;;;2.03;;
21038;SDS011;10678;51.002;4.786;2022-11-20T13:08:18;6.35;;;2.17;;
21038;SDS011;10678;51.002;4.786;2022-11-20T13:10:56;7.03;;;2.60;;
21038;SDS011;10678;51.002;4.786;2022-11-20T13:16:50;7.57;;;2.30;;
21038;SDS011;10678;51.002;4.786;2022-11-20T13:19:14;8.13;;;2.27;;
21038;SDS011;10678;51.002;4.786;2022-11-20T13:21:42;8.77;;;2.17;;
21038;SDS011;10678;51.002;4.786;2022-11-20T13:27:02;14.93;;;3.60;;
21038;SDS011;10678;51.002;4.786;2022-11-20T13:29:44;5.77;;;2.13;;
21038;SDS011;10678;51.002;4.786;2022-11-20T13:32:15;8.23;;;2.43;;
21038;SDS011;10678;51.002;4.786;2022-11-20T13:34:52;10.80;;;2.40;;
21038;SDS011;10678;51.002;4.786;2022-11-20T13:37:27;9.03;;;2.70;;
21038;SDS011;10678;51.002;4.786;2022-11-20T13:42:39;7.60;;;2.63;;
21038;SDS011;10678;51.002;4.786;2022-11-20T13:45:11;6.20;;;2.78;;
21038;SDS011;10678;51.002;4.786;2022-11-20T13:47:48;7.30;;;2.40;;
21038;SDS011;10678;51.002;4.786;2022-11-20T13:50:15;11.98;;;2.22;;
21038;SDS011;10678;51.002;4.786;2022-11-20T13:55:49;7.37;;;2.53;;
21038;SDS011;10678;51.002;4.786;2022-11-20T14:00:57;8.82;;;2.47;;
21038;SDS011;10678;51.002;4.786;2022-11-20T14:03:27;8.07;;;2.30;;
21038;SDS011;10678;51.002;4.786;2022-11-20T14:05:55;15.77;;;2.87;;
21038;SDS011;10678;51.002;4.786;2022-11-20T14:13:30;10.97;;;4.13;;
21038;SDS011;10678;51.002;4.786;2022-11-20T14:15:59;8.07;;;3.63;;
21038;SDS011;10678;51.002;4.786;2022-11-20T14:18:25;8.13;;;2.93;;
21038;SDS011;10678;51.002;4.786;2022-11-20T14:20:52;9.50;;;2.50;;
21038;SDS011;10678;51.002;4.786;2022-11-20T14:23:24;8.40;;;2.87;;
21038;SDS011;10678;51.002;4.786;2022-11-20T14:25:53;10.10;;;2.53;;
21038;SDS011;10678;51.002;4.786;2022-11-20T14:28:26;6.33;;;2.60;;
21038;SDS011;10678;51.002;4.786;2022-11-20T14:30:54;6.50;;;2.57;;
21038;SDS011;10678;51.002;4.786;2022-11-20T14:33:21;9.97;;;2.63;;
21038;SDS011;10678;51.002;4.786;2022-11-20T14:35:53;9.17;;;2.33;;
21038;SDS011;10678;51.002;4.786;2022-11-20T14:38:25;8.57;;;2.10;;
21038;SDS011;10678;51.002;4.786;2022-11-20T14:40:53;5.73;;;2.10;;
21038;SDS011;10678;51.002;4.786;2022-11-20T14:43:27;6.87;;;1.97;;
21038;SDS011;10678;51.002;4.786;2022-11-20T14:46:03;8.07;;;2.43;;
21038;SDS011;10678;51.002;4.786;2022-11-20T14:48:47;4.03;;;1.80;;
21038;SDS011;10678;51.002;4.786;2022-11-20T14:54:14;6.70;;;2.37;;
21038;SDS011;10678;51.002;4.786;2022-11-20T14:56:41;7.63;;;2.30;;
21038;SDS011;10678;51.002;4.786;2022-11-20T14:59:22;7.80;;;2.53;;
21038;SDS011;10678;51.002;4.786;2022-11-20T15:01:55;9.27;;;2.30;;
21038;SDS011;10678;51.002;4.786;2022-11-20T15:04:33;5.70;;;2.03;;
21038;SDS011;10678;51.002;4.786;2022-11-20T15:07:08;5.43;;;2.27;;
21038;SDS011;10678;51.002;4.786;2022-11-20T15:09:34;5.57;;;1.93;;
21038;SDS011;10678;51.002;4.786;2022-11-20T15:12:00;5.80;;;2.30;;
21038;SDS011;10678;51.002;4.786;2022-11-20T15:14:28;6.23;;;2.23;;
21038;SDS011;10678;51.002;4.786;2022-11-20T15:16:57;4.37;;;1.87;;
21038;SDS011;10678;51.002;4.786;2022-11-20T15:19:24;6.50;;;2.40;;
21038;SDS011;10678;51.002;4.786;2022-11-20T15:21:51;7.43;;;2.30;;
21038;SDS011;10678;51.002;4.786;2022-11-20T15:24:17;6.55;;;1.75;;
21038;SDS011;10678;51.002;4.786;2022-11-20T15:26:43;5.03;;;2.17;;
21038;SDS011;10678;51.002;4.786;2022-11-20T15:29:09;5.60;;;2.40;;
21038;SDS011;10678;51.002;4.786;2022-11-20T15:31:37;6.27;;;2.37;;
21038;SDS011;10678;51.002;4.786;2022-11-20T15:34:08;6.13;;;2.40;;
21038;SDS011;10678;51.002;4.786;2022-11-20T15:36:37;7.00;;;2.70;;
21038;SDS011;10678;51.002;4.786;2022-11-20T15:39:03;9.67;;;2.90;;
21038;SDS011;10678;51.002;4.786;2022-11-20T15:41:29;4.50;;;2.40;;
21038;SDS011;10678;51.002;4.786;2022-11-20T15:43:54;9.53;;;2.80;;
21038;SDS011;10678;51.002;4.786;2022-11-20T15:46:25;6.25;;;2.60;;
21038;SDS011;10678;51.002;4.786;2022-11-20T15:48:55;7.23;;;3.40;;
21038;SDS011;10678;51.002;4.786;2022-11-20T15:51:26;7.67;;;3.40;;
21038;SDS011;10678;51.002;4.786;2022-11-20T15:53:54;7.55;;;3.75;;
21038;SDS011;10678;51.002;4.786;2022-11-20T15:56:20;10.10;;;3.80;;
21038;SDS011;10678;51.002;4.786;2022-11-20T15:58:46;8.90;;;3.87;;
21038;SDS011;10678;51.002;4.786;2022-11-20T16:01:12;10.80;;;3.83;;
21038;SDS011;10678;51.002;4.786;2022-11-20T16:03:40;7.03;;;3.73;;
21038;SDS011;10678;51.002;4.786;2022-11-20T16:06:05;11.45;;;3.97;;
21038;SDS011;10678;51.002;4.786;2022-11-20T16:08:31;9.45;;;3.45;;
21038;SDS011;10678;51.002;4.786;2022-11-20T16:10:57;8.23;;;4.30;;
21038;SDS011;10678;51.002;4.786;2022-11-20T16:13:22;8.57;;;3.90;;
21038;SDS011;10678;51.002;4.786;2022-11-20T16:16:07;9.17;;;4.27;;
21038;SDS011;10678;51.002;4.786;2022-11-20T16:18:45;14.87;;;4.50;;
21038;SDS011;10678;51.002;4.786;2022-11-20T16:21:11;14.97;;;4.33;;
21038;SDS011;10678;51.002;4.786;2022-11-20T16:23:38;16.70;;;4.97;;
21038;SDS011;10678;51.002;4.786;2022-11-20T16:26:10;8.67;;;3.67;;
21038;SDS011;10678;51.002;4.786;2022-11-20T16:28:37;10.67;;;4.40;;
21038;SDS011;10678;51.002;4.786;2022-11-20T16:31:13;12.33;;;4.47;;